createdAt,value
2023-03-21T00:01:53.203Z,9.03
2023-03-21T00:04:20.698Z,9.08
2023-03-21T00:06:48.135Z,9.08
2023-03-21T00:09:16.424Z,9.11
2023-03-21T00:11:44.113Z,9.11
2023-03-21T00:14:15.261Z,9.11
2023-03-21T00:16:46.304Z,9.09
2023-03-21T00:19:16.083Z,9.08
2023-03-21T00:21:59.572Z,9.11
2023-03-21T00:24:32.905Z,9.14
2023-03-21T00:27:24.635Z,9.08
2023-03-21T00:29:51.202Z,9.06
2023-03-21T00:32:18.914Z,9.03
2023-03-21T00:35:01.533Z,9.02
2023-03-21T00:37:35.590Z,9.17
2023-03-21T00:40:16.297Z,8.98
2023-03-21T00:42:48.190Z,9.03
2023-03-21T00:45:16.760Z,8.99
2023-03-21T00:47:44.213Z,9.05
2023-03-21T00:50:13.172Z,9.14
2023-03-21T00:52:41.436Z,8.99
2023-03-21T00:55:16.699Z,9.09
2023-03-21T00:57:47.523Z,9.09
2023-03-21T01:00:21.500Z,9.06
2023-03-21T01:03:04.286Z,9.11
2023-03-21T01:05:57.648Z,9.10
2023-03-21T01:08:33.063Z,9.09
2023-03-21T01:11:08.444Z,9.07
2023-03-21T01:13:40.896Z,8.98
2023-03-21T01:16:12.094Z,8.96
2023-03-21T01:18:41.318Z,9.05
2023-03-21T01:21:14.344Z,9.13
2023-03-21T01:23:43.312Z,9.03
2023-03-21T01:26:12.837Z,9.05
2023-03-21T01:28:42.040Z,9.11
2023-03-21T01:31:12.648Z,9.05
2023-03-21T01:33:41.084Z,9.00
2023-03-21T01:36:13.144Z,9.06
2023-03-21T01:38:42.946Z,9.04
2023-03-21T01:41:20.581Z,9.08
2023-03-21T01:43:48.079Z,9.08
2023-03-21T01:46:32.273Z,9.07
2023-03-21T01:49:09.059Z,9.11
2023-03-21T01:51:42.443Z,9.12
2023-03-21T01:54:20.322Z,9.07
2023-03-21T01:56:48.260Z,9.08
2023-03-21T01:59:21.843Z,9.08
2023-03-21T02:01:53.203Z,9.14
2023-03-21T02:04:28.144Z,9.13
2023-03-21T02:07:01.758Z,9.04
2023-03-21T02:09:33.655Z,9.19
2023-03-21T02:12:04.618Z,9.15
2023-03-21T02:14:34.788Z,9.12
2023-03-21T02:17:13.757Z,9.11
2023-03-21T02:20:31.851Z,9.17
2023-03-21T02:23:31.473Z,9.13
2023-03-21T02:26:39.527Z,9.09
2023-03-21T02:29:26.583Z,9.11
2023-03-21T02:32:16.498Z,9.07
2023-03-21T02:35:08.599Z,9.02
2023-03-21T02:37:44.626Z,9.08
2023-03-21T02:40:18.430Z,9.14
2023-03-21T02:43:00.749Z,9.17
2023-03-21T02:45:35.045Z,9.13
2023-03-21T02:48:10.060Z,9.09
2023-03-21T02:50:43.821Z,9.11
2023-03-21T02:53:17.625Z,9.20
2023-03-21T02:55:47.760Z,9.14
2023-03-21T02:58:19.970Z,9.12
2023-03-21T03:00:49.637Z,9.16
2023-03-21T03:03:27.890Z,9.21
2023-03-21T03:06:02.764Z,9.01
2023-03-21T03:08:50.151Z,9.12
2023-03-21T03:11:29.024Z,9.06
2023-03-21T03:14:35.760Z,9.15
2023-03-21T03:17:11.189Z,9.11
2023-03-21T03:19:51.504Z,9.08
2023-03-21T03:22:23.991Z,9.11
2023-03-21T03:25:04.745Z,9.02
2023-03-21T03:27:44.842Z,9.09
2023-03-21T03:30:14.417Z,9.08
2023-03-21T03:32:50.886Z,9.01
2023-03-21T03:35:20.606Z,9.05
2023-03-21T03:37:52.109Z,9.07
2023-03-21T03:40:26.183Z,9.16
2023-03-21T03:42:59.884Z,9.09
2023-03-21T03:45:32.609Z,9.10
2023-03-21T03:48:08.413Z,9.12
2023-03-21T03:50:42.648Z,9.07
2023-03-21T03:53:18.603Z,9.10
2023-03-21T03:55:50.437Z,9.10
2023-03-21T03:58:24.034Z,9.18
2023-03-21T04:00:55.113Z,9.13
2023-03-21T04:03:22.718Z,9.05
2023-03-21T04:05:50.763Z,9.07
2023-03-21T04:08:18.496Z,9.02
2023-03-21T04:10:47.680Z,9.09
2023-03-21T04:13:15.558Z,9.08
2023-03-21T04:15:44.650Z,9.03
2023-03-21T04:18:12.818Z,8.98
2023-03-21T04:20:40.369Z,9.09
2023-03-21T04:23:11.404Z,9.10
2023-03-21T04:25:53.987Z,9.05
2023-03-21T04:28:26.317Z,9.07
2023-03-21T04:31:03.557Z,9.02
2023-03-21T04:33:38.609Z,9.06
2023-03-21T04:36:26.624Z,9.00
2023-03-21T04:38:55.092Z,9.04
2023-03-21T04:41:22.550Z,8.94
2023-03-21T04:43:54.811Z,8.93
2023-03-21T04:46:23.572Z,8.96
2023-03-21T04:48:51.381Z,8.96
2023-03-21T04:51:31.413Z,8.98
2023-03-21T04:54:03.672Z,8.91
2023-03-21T04:56:37.960Z,8.99
2023-03-21T04:59:13.951Z,9.00
2023-03-21T05:01:46.325Z,9.05
2023-03-21T05:04:16.996Z,9.01
2023-03-21T05:06:46.341Z,9.01
2023-03-21T05:09:15.125Z,9.07
2023-03-21T05:11:43.082Z,8.99
2023-03-21T05:14:17.534Z,9.01
2023-03-21T05:16:53.298Z,8.93
2023-03-21T05:19:23.467Z,8.97
2023-03-21T05:21:51.084Z,9.07
2023-03-21T05:24:21.077Z,8.89
2023-03-21T05:26:52.835Z,8.94
2023-03-21T05:29:23.071Z,8.94
2023-03-21T05:31:52.349Z,8.91
2023-03-21T05:34:20.036Z,8.95
2023-03-21T05:36:49.995Z,8.88
2023-03-21T05:39:22.389Z,8.86
2023-03-21T05:42:08.553Z,8.95
2023-03-21T05:44:44.030Z,8.89
2023-03-21T05:47:37.440Z,8.95
2023-03-21T05:50:07.120Z,8.98
2023-03-21T05:52:34.713Z,8.82
2023-03-21T05:55:04.133Z,8.90
2023-03-21T05:57:39.678Z,8.90
2023-03-21T06:00:10.875Z,9.03
2023-03-21T06:02:38.767Z,8.98
2023-03-21T06:05:07.404Z,8.98
2023-03-21T06:07:40.056Z,9.04
2023-03-21T06:10:09.454Z,8.91
2023-03-21T06:12:37.690Z,8.99
2023-03-21T06:15:05.791Z,8.97
2023-03-21T06:17:34.926Z,8.93
2023-03-21T06:20:04.772Z,8.97
2023-03-21T06:22:32.430Z,9.00
2023-03-21T06:24:59.759Z,9.09
2023-03-21T06:27:27.595Z,9.08
2023-03-21T06:29:55.486Z,9.04
2023-03-21T06:32:23.149Z,9.06
2023-03-21T06:34:52.974Z,9.16
2023-03-21T06:37:20.545Z,9.15
2023-03-21T06:39:48.258Z,9.21
2023-03-21T06:42:16.131Z,9.11
2023-03-21T06:44:43.851Z,9.09
2023-03-21T06:47:11.856Z,9.14
2023-03-21T06:49:39.346Z,9.19
2023-03-21T06:52:08.397Z,9.11
2023-03-21T06:54:36.382Z,9.18
2023-03-21T06:57:08.080Z,9.05
2023-03-21T06:59:47.576Z,9.05
2023-03-21T07:02:16.126Z,9.13
2023-03-21T07:04:47.891Z,9.11
2023-03-21T07:07:18.285Z,9.03
2023-03-21T07:09:48.767Z,9.14
2023-03-21T07:12:16.618Z,9.13
2023-03-21T07:14:53.569Z,9.16
2023-03-21T07:17:21.801Z,9.21
2023-03-21T07:19:50.705Z,9.31
2023-03-21T07:22:23.321Z,9.24
2023-03-21T07:25:04.255Z,9.12
2023-03-21T07:27:33.420Z,9.24
2023-03-21T07:30:03.225Z,9.27
2023-03-21T07:32:34.107Z,9.31
2023-03-21T07:35:01.984Z,9.25
2023-03-21T07:37:35.051Z,9.14
2023-03-21T07:40:09.800Z,9.22
2023-03-21T07:42:37.254Z,9.20
2023-03-21T07:45:09.831Z,9.20
2023-03-21T07:47:37.332Z,9.15
2023-03-21T07:50:06.580Z,9.24
2023-03-21T07:52:36.879Z,9.28
2023-03-21T07:55:05.009Z,9.16
2023-03-21T07:57:32.465Z,9.18
2023-03-21T08:00:03.706Z,9.14
2023-03-21T08:02:34.537Z,9.23
2023-03-21T08:05:08.269Z,9.16
2023-03-21T08:07:46.468Z,9.19
2023-03-21T08:10:14.698Z,9.17
2023-03-21T08:12:53.904Z,9.23
2023-03-21T08:15:24.570Z,9.18
2023-03-21T08:17:52.641Z,9.39
2023-03-21T08:20:25.067Z,9.42
2023-03-21T08:22:54.131Z,9.13
2023-03-21T08:25:24.920Z,9.12
2023-03-21T08:27:52.679Z,9.29
2023-03-21T08:30:26.978Z,9.32
2023-03-21T08:33:00.529Z,9.26
2023-03-21T08:35:29.753Z,9.33
2023-03-21T08:37:59.527Z,9.42
2023-03-21T08:40:27.557Z,9.44
2023-03-21T08:42:55.880Z,9.53
2023-03-21T08:45:23.928Z,9.60
2023-03-21T08:47:57.792Z,9.68
2023-03-21T08:50:31.797Z,9.85
2023-03-21T08:53:01.482Z,9.95
2023-03-21T08:55:39.776Z,9.97
2023-03-21T08:58:08.117Z,9.89
2023-03-21T09:00:36.838Z,10.07
2023-03-21T09:03:10.597Z,10.00
2023-03-21T09:05:39.834Z,9.95
2023-03-21T09:08:10.675Z,10.02
2023-03-21T09:10:41.304Z,10.09
2023-03-21T09:13:09.788Z,10.05
2023-03-21T09:15:40.760Z,10.23
2023-03-21T09:18:16.370Z,10.53
2023-03-21T09:20:50.493Z,10.51
2023-03-21T09:23:23.215Z,10.81
2023-03-21T09:25:51.957Z,10.94
2023-03-21T09:28:22.743Z,10.93
2023-03-21T09:30:50.948Z,10.71
2023-03-21T09:33:25.846Z,10.84
2023-03-21T09:35:58.043Z,11.04
2023-03-21T09:38:37.235Z,11.07
2023-03-21T09:41:16.402Z,11.58
2023-03-21T09:44:04.333Z,11.42
2023-03-21T09:46:43.740Z,11.29
2023-03-21T09:49:22.603Z,11.13
2023-03-21T09:51:54.977Z,11.29
2023-03-21T09:54:34.041Z,11.48
2023-03-21T09:57:19.883Z,11.22
2023-03-21T09:59:56.808Z,11.36
2023-03-21T10:02:41.368Z,10.99
2023-03-21T10:05:19.093Z,11.33
2023-03-21T10:08:01.303Z,11.17
2023-03-21T10:10:39.758Z,11.17
2023-03-21T10:13:16.205Z,11.16
2023-03-21T10:15:51.310Z,11.61
2023-03-21T10:18:22.841Z,11.39
2023-03-21T10:20:52.194Z,11.48
2023-03-21T10:23:22.800Z,11.30
2023-03-21T10:25:56.667Z,11.45
2023-03-21T10:28:27.868Z,11.71
2023-03-21T10:31:01.059Z,11.52
2023-03-21T10:33:34.064Z,11.75
2023-03-21T10:36:07.041Z,11.65
2023-03-21T10:38:35.944Z,11.58
2023-03-21T10:41:05.060Z,11.54
2023-03-21T10:43:38.092Z,11.50
2023-03-21T10:46:14.702Z,11.49
2023-03-21T10:48:48.402Z,11.58
2023-03-21T10:51:27.883Z,11.95
2023-03-21T10:54:01.792Z,11.82
2023-03-21T10:56:51.468Z,11.98
2023-03-21T10:59:23.419Z,11.97
2023-03-21T11:01:57.417Z,12.06
2023-03-21T11:04:34.432Z,12.19
2023-03-21T11:07:09.305Z,12.43
2023-03-21T11:09:53.513Z,12.50
2023-03-21T11:12:35.284Z,11.75
2023-03-21T11:15:27.310Z,11.68
2023-03-21T11:17:55.486Z,11.73
2023-03-21T11:20:23.156Z,11.66
2023-03-21T11:22:58.312Z,11.69
2023-03-21T11:25:38.174Z,11.94
2023-03-21T11:28:12.567Z,12.09
2023-03-21T11:30:54.564Z,12.06
2023-03-21T11:33:23.603Z,12.19
2023-03-21T11:36:03.055Z,12.47
2023-03-21T11:38:36.954Z,12.56
2023-03-21T11:41:08.234Z,12.74
2023-03-21T11:43:41.698Z,12.70
2023-03-21T11:46:14.475Z,12.64
2023-03-21T11:48:45.178Z,12.20
2023-03-21T11:51:25.400Z,12.42
2023-03-21T11:54:07.267Z,12.42
2023-03-21T11:56:38.594Z,12.53
2023-03-21T11:59:23.497Z,12.71
2023-03-21T12:02:14.002Z,12.63
2023-03-21T12:04:47.032Z,12.88
2023-03-21T12:07:27.212Z,12.25
2023-03-21T12:10:12.148Z,12.65
2023-03-21T12:12:54.049Z,12.99
2023-03-21T12:15:29.628Z,12.75
2023-03-21T12:18:03.616Z,13.10
2023-03-21T12:20:47.398Z,12.80
2023-03-21T12:23:41.145Z,13.04
2023-03-21T12:26:23.998Z,12.66
2023-03-21T12:29:21.092Z,12.84
2023-03-21T12:32:05.964Z,13.28
2023-03-21T12:34:56.718Z,13.48
2023-03-21T12:37:33.993Z,13.68
2023-03-21T12:40:10.734Z,13.92
2023-03-21T12:42:53.113Z,13.83
2023-03-21T12:45:24.742Z,13.87
2023-03-21T12:47:59.758Z,13.84
2023-03-21T12:50:37.162Z,13.45
2023-03-21T12:53:23.221Z,13.78
2023-03-21T12:55:53.294Z,13.27
2023-03-21T12:58:26.404Z,13.28
2023-03-21T13:00:57.011Z,12.98
2023-03-21T13:03:40.869Z,13.20
2023-03-21T13:06:13.443Z,13.04
2023-03-21T13:08:49.279Z,13.15
2023-03-21T13:11:22.622Z,12.78
2023-03-21T13:14:01.428Z,12.83
2023-03-21T13:16:36.727Z,12.88
2023-03-21T13:19:18.601Z,13.12
2023-03-21T13:22:01.665Z,12.82
2023-03-21T13:24:38.290Z,12.42
2023-03-21T13:27:17.058Z,12.68
2023-03-21T13:29:47.666Z,12.63
2023-03-21T13:32:29.991Z,12.57
2023-03-21T13:35:01.250Z,12.65
2023-03-21T13:37:39.203Z,12.36
2023-03-21T13:40:23.035Z,12.38
2023-03-21T13:42:59.729Z,12.55
2023-03-21T13:45:33.636Z,12.60
2023-03-21T13:48:05.789Z,12.54
2023-03-21T13:51:01.412Z,12.81
2023-03-21T13:53:37.162Z,12.40
2023-03-21T13:56:24.182Z,12.39
2023-03-21T13:58:55.072Z,12.37
2023-03-21T14:01:31.862Z,12.51
2023-03-21T14:04:06.529Z,12.53
2023-03-21T14:06:43.960Z,12.44
2023-03-21T14:09:19.945Z,12.41
2023-03-21T14:11:48.954Z,12.29
2023-03-21T14:14:20.313Z,12.41
2023-03-21T14:16:52.819Z,12.18
2023-03-21T14:19:21.609Z,12.21
2023-03-21T14:21:53.931Z,12.27
2023-03-21T14:24:24.257Z,12.03
2023-03-21T14:26:55.803Z,11.77
2023-03-21T14:29:27.137Z,11.99
2023-03-21T14:31:56.848Z,11.94
2023-03-21T14:34:27.760Z,12.00
2023-03-21T14:36:58.975Z,12.08
2023-03-21T14:39:29.799Z,12.03
2023-03-21T14:42:04.559Z,12.06
2023-03-21T14:44:58.390Z,12.04
2023-03-21T14:47:28.416Z,12.11
2023-03-21T14:50:02.068Z,12.12
2023-03-21T14:52:35.155Z,11.97
2023-03-21T14:55:15.752Z,11.88
2023-03-21T14:57:48.534Z,11.84
2023-03-21T15:00:24.170Z,11.76
2023-03-21T15:02:58.906Z,11.55
2023-03-21T15:05:32.050Z,11.73
2023-03-21T15:08:15.995Z,11.69
2023-03-21T15:11:07.371Z,11.67
2023-03-21T15:13:47.843Z,11.62
2023-03-21T15:16:25.309Z,11.54
2023-03-21T15:19:10.894Z,11.55
2023-03-21T15:21:43.095Z,11.54
2023-03-21T15:24:23.176Z,11.65
2023-03-21T15:27:00.627Z,11.46
2023-03-21T15:29:43.621Z,11.44
2023-03-21T15:32:23.077Z,11.30
2023-03-21T15:35:10.745Z,11.27
2023-03-21T15:37:41.479Z,11.19
2023-03-21T15:40:22.128Z,11.24
2023-03-21T15:43:21.615Z,11.39
2023-03-21T15:45:56.323Z,11.37
2023-03-21T15:48:29.747Z,11.43
2023-03-21T15:51:06.604Z,11.43
2023-03-21T15:53:38.256Z,11.43
2023-03-21T15:56:16.666Z,11.46
2023-03-21T15:58:50.888Z,11.42
2023-03-21T16:01:25.762Z,11.42
2023-03-21T16:03:57.854Z,11.41
2023-03-21T16:06:34.238Z,11.41
2023-03-21T16:09:12.546Z,11.50
2023-03-21T16:11:48.390Z,11.80
2023-03-21T16:14:19.290Z,11.85
2023-03-21T16:16:50.106Z,11.85
2023-03-21T16:19:19.274Z,11.70
2023-03-21T16:21:47.021Z,11.66
2023-03-21T16:24:14.506Z,11.68
2023-03-21T16:26:47.812Z,11.82
2023-03-21T16:29:18.204Z,11.72
2023-03-21T16:31:48.519Z,11.69
2023-03-21T16:34:16.200Z,11.64
2023-03-21T16:36:45.139Z,11.71
2023-03-21T16:39:20.992Z,11.76
2023-03-21T16:41:53.682Z,11.56
2023-03-21T16:44:24.604Z,11.58
2023-03-21T16:46:52.634Z,11.68
2023-03-21T16:49:24.893Z,11.78
2023-03-21T16:51:54.970Z,12.26
2023-03-21T16:54:26.043Z,12.47
2023-03-21T16:56:59.733Z,12.08
2023-03-21T16:59:27.095Z,12.00
2023-03-21T17:01:58.825Z,11.94
2023-03-21T17:04:33.179Z,11.72
2023-03-21T17:07:02.151Z,11.68
2023-03-21T17:09:32.652Z,11.65
2023-03-21T17:12:02.813Z,11.73
2023-03-21T17:14:31.397Z,11.68
2023-03-21T17:16:58.917Z,11.85
2023-03-21T17:19:28.537Z,11.80
2023-03-21T17:21:55.708Z,11.70
2023-03-21T17:24:23.973Z,11.67
2023-03-21T17:26:51.245Z,11.54
2023-03-21T17:29:25.465Z,11.43
2023-03-21T17:31:53.077Z,11.43
2023-03-21T17:34:21.057Z,11.38
2023-03-21T17:36:49.368Z,11.38
2023-03-21T17:39:20.242Z,11.39
2023-03-21T17:41:50.530Z,11.44
2023-03-21T17:44:18.375Z,11.38
2023-03-21T17:46:50.224Z,11.32
2023-03-21T17:49:22.021Z,11.24
2023-03-21T17:51:50.636Z,11.19
2023-03-21T17:54:18.374Z,11.07
2023-03-21T17:56:46.073Z,11.09
2023-03-21T17:59:15.251Z,11.04
2023-03-21T18:01:47.901Z,10.96
2023-03-21T18:04:18.140Z,10.87
2023-03-21T18:06:45.463Z,10.85
2023-03-21T18:09:13.318Z,10.82
2023-03-21T18:11:44.225Z,10.71
2023-03-21T18:14:18.241Z,10.73
2023-03-21T18:16:54.312Z,10.63
2023-03-21T18:19:21.655Z,10.66
2023-03-21T18:21:49.441Z,10.61
2023-03-21T18:24:20.726Z,10.58
2023-03-21T18:26:58.203Z,10.60
2023-03-21T18:30:19.653Z,10.67
2023-03-21T18:32:18.000Z,10.62
2023-03-21T18:34:46.784Z,10.62
2023-03-21T18:37:14.641Z,10.52
2023-03-21T18:39:46.601Z,10.56
2023-03-21T18:42:18.872Z,10.48
2023-03-21T18:44:48.716Z,10.55
2023-03-21T18:47:19.624Z,10.57
2023-03-21T18:50:13.784Z,10.49
2023-03-21T18:52:34.289Z,10.50
2023-03-21T18:55:02.655Z,10.44
2023-03-21T18:57:38.980Z,10.48
2023-03-21T19:00:12.950Z,10.46
2023-03-21T19:02:48.327Z,10.40
2023-03-21T19:05:16.611Z,10.40
2023-03-21T19:07:43.762Z,10.39
2023-03-21T19:10:19.023Z,10.37
2023-03-21T19:12:53.107Z,10.25
2023-03-21T19:15:25.157Z,10.30
2023-03-21T19:18:49.487Z,10.32
2023-03-21T19:21:23.636Z,10.33
2023-03-21T19:26:39.655Z,10.16
2023-03-21T19:29:09.399Z,10.19
2023-03-21T19:31:36.893Z,10.13
2023-03-21T19:34:10.264Z,10.08
2023-03-21T19:36:37.819Z,10.11
2023-03-21T19:39:04.966Z,10.13
2023-03-21T19:41:32.767Z,10.09
2023-03-21T19:44:00.843Z,10.07
2023-03-21T19:46:28.174Z,10.12
2023-03-21T19:48:56.957Z,10.07
2023-03-21T19:51:29.838Z,10.10
2023-03-21T19:54:00.304Z,10.07
2023-03-21T19:56:28.049Z,10.04
2023-03-21T19:58:56.278Z,9.99
2023-03-21T20:01:24.873Z,9.90
2023-03-21T20:03:52.585Z,9.94
2023-03-21T20:06:22.529Z,9.92
2023-03-21T20:11:40.973Z,9.88
2023-03-21T20:14:08.661Z,9.90
2023-03-21T20:16:37.645Z,9.81
2023-03-21T20:19:08.908Z,9.83
2023-03-21T20:21:48.568Z,9.82
2023-03-21T20:24:20.728Z,9.78
2023-03-21T20:26:49.345Z,9.72
2023-03-21T20:30:07.122Z,9.74
2023-03-21T20:32:04.866Z,9.66
2023-03-21T20:34:36.901Z,9.71
2023-03-21T20:37:06.149Z,9.66
2023-03-21T20:39:35.543Z,9.60
2023-03-21T20:42:02.928Z,9.62
2023-03-21T20:45:03.040Z,9.47
2023-03-21T20:47:22.378Z,9.46
2023-03-21T20:49:50.103Z,9.45
2023-03-21T20:55:14.619Z,9.39
2023-03-21T20:57:42.290Z,9.47
2023-03-21T21:00:15.481Z,9.41
2023-03-21T21:02:44.788Z,9.39
2023-03-21T21:05:33.084Z,9.32
2023-03-21T21:08:04.101Z,9.39
2023-03-21T21:10:33.733Z,9.43
2023-03-21T21:13:02.016Z,9.35
2023-03-21T21:15:29.799Z,9.35
2023-03-21T21:18:07.403Z,9.32
2023-03-21T21:20:35.847Z,9.37
2023-03-21T21:23:03.165Z,9.43
2023-03-21T21:25:34.448Z,9.46
2023-03-21T21:28:03.833Z,9.42
2023-03-21T21:30:32.665Z,9.42
2023-03-21T21:33:01.233Z,9.40
2023-03-21T21:35:28.821Z,9.44
2023-03-21T21:37:59.467Z,9.45
2023-03-21T21:40:27.212Z,9.44
2023-03-21T21:42:56.632Z,9.52
2023-03-21T21:45:24.418Z,9.55
2023-03-21T21:47:52.102Z,9.57
2023-03-21T21:50:24.560Z,9.61
2023-03-21T21:52:52.972Z,9.55
2023-03-21T21:55:23.443Z,9.52
2023-03-21T21:57:54.094Z,9.53
2023-03-21T22:00:25.544Z,9.51
2023-03-21T22:02:54.847Z,9.45
2023-03-21T22:05:22.375Z,9.43
2023-03-21T22:07:54.257Z,9.48
2023-03-21T22:10:25.583Z,9.51
2023-03-21T22:12:55.881Z,9.47
2023-03-21T22:15:27.652Z,9.57
2023-03-21T22:17:54.957Z,9.50
2023-03-21T22:20:23.022Z,9.56
2023-03-21T22:22:51.658Z,9.51
2023-03-21T22:25:22.087Z,9.48
2023-03-21T22:27:49.434Z,9.47
2023-03-21T22:30:17.795Z,9.51
2023-03-21T22:32:56.375Z,9.49
2023-03-21T22:35:32.121Z,9.47
2023-03-21T22:38:02.359Z,9.50
2023-03-21T22:40:36.521Z,9.42
2023-03-21T22:43:04.761Z,9.48
2023-03-21T22:45:34.963Z,9.43
2023-03-21T22:48:07.717Z,9.46
2023-03-21T22:50:35.193Z,9.48
2023-03-21T22:53:08.051Z,9.47
2023-03-21T22:55:35.757Z,9.44
2023-03-21T22:58:06.692Z,9.44
2023-03-21T23:00:34.795Z,9.44
2023-03-21T23:03:03.404Z,9.48
2023-03-21T23:05:31.489Z,9.47
2023-03-21T23:08:01.502Z,9.48
2023-03-21T23:10:32.100Z,9.46
2023-03-21T23:13:04.519Z,9.53
2023-03-21T23:15:32.295Z,9.42
2023-03-21T23:18:05.317Z,9.45
2023-03-21T23:20:33.134Z,9.45
2023-03-21T23:23:03.478Z,9.42
2023-03-21T23:25:31.297Z,9.42
2023-03-21T23:28:00.174Z,9.48
2023-03-21T23:30:27.493Z,9.46
2023-03-21T23:32:55.851Z,9.43
2023-03-21T23:35:24.722Z,9.44
2023-03-21T23:37:52.851Z,9.42
2023-03-21T23:40:23.504Z,9.39
2023-03-21T23:42:50.918Z,9.38
2023-03-21T23:45:20.364Z,9.36
2023-03-21T23:47:50.233Z,9.39
2023-03-21T23:50:17.758Z,9.42
2023-03-21T23:52:46.506Z,9.43
2023-03-21T23:55:13.635Z,9.45
2023-03-21T23:57:43.942Z,9.44
